Time;durP1;ratioP1;P1;durP2;ratioP2;P2;SDS_P1;SDS_P2;PMS_P1;PMS_P2;Temp;Humidity;BMP_temperature;BMP_pressure;BME280_temperature;BME280_humidity;BME280_pressure;Samples;Min_cycle;Max_cycle;Signal;HPM_P1;HPM_P2
2022/06/30 00:00:59;;;;;;;10.43;9.43;;;19.30;99.90;;;;;;5057401;28;20040;-52
2022/06/30 00:03:25;;;;;;;6.85;6.30;;;19.30;99.90;;;;;;5046741;28;20040;-52
2022/06/30 00:05:51;;;;;;;10.75;8.75;;;19.30;99.90;;;;;;5063825;28;20044;-53
2022/06/30 00:08:16;;;;;;;9.75;8.55;;;19.30;99.90;;;;;;5067231;28;20046;-52
2022/06/30 00:10:43;;;;;;;10.48;9.45;;;19.30;99.90;;;;;;5043318;28;20131;-49
2022/06/30 00:13:08;;;;;;;8.88;7.97;;;19.30;99.90;;;;;;5037918;28;20052;-51
2022/06/30 00:15:35;;;;;;;9.85;8.95;;;19.30;99.90;;;;;;5046475;28;20040;-49
2022/06/30 00:18:01;;;;;;;10.45;9.55;;;19.30;99.90;;;;;;5047305;28;20407;-49
2022/06/30 00:20:27;;;;;;;8.77;7.93;;;19.30;99.90;;;;;;5045139;28;20048;-50
2022/06/30 00:22:53;;;;;;;9.55;8.25;;;19.30;99.90;;;;;;5044924;28;20162;-50
2022/06/30 00:25:18;;;;;;;9.88;8.88;;;19.20;99.90;;;;;;5048708;28;20131;-51
2022/06/30 00:27:44;;;;;;;10.38;9.25;;;19.20;99.90;;;;;;5068210;28;20039;-50
2022/06/30 00:30:10;;;;;;;8.63;7.28;;;19.30;99.90;;;;;;5071330;28;20505;-49
2022/06/30 00:32:36;;;;;;;7.63;6.85;;;19.30;99.90;;;;;;5037790;28;20039;-49
2022/06/30 00:35:03;;;;;;;12.30;9.50;;;19.20;99.90;;;;;;5045318;28;20368;-52
2022/06/30 00:37:29;;;;;;;9.10;8.20;;;19.20;99.90;;;;;;5048886;28;20036;-50
2022/06/30 00:39:54;;;;;;;10.18;8.98;;;19.20;99.90;;;;;;5065933;28;20043;-51
2022/06/30 00:42:21;;;;;;;7.10;6.40;;;19.10;99.90;;;;;;5039472;28;20052;-54
2022/06/30 00:44:47;;;;;;;8.60;7.80;;;19.10;99.90;;;;;;5040517;28;20040;-55
2022/06/30 00:47:13;;;;;;;10.48;9.48;;;19.10;99.90;;;;;;5047418;28;20045;-55
2022/06/30 00:49:39;;;;;;;9.45;8.55;;;19.10;99.90;;;;;;5050205;28;20101;-55
2022/06/30 00:52:08;;;;;;;9.63;8.52;;;19.10;99.90;;;;;;5064918;28;20028;-51
2022/06/30 00:54:36;;;;;;;10.20;8.35;;;19.10;99.90;;;;;;5054606;28;20044;-50
2022/06/30 00:57:03;;;;;;;11.55;10.38;;;19.10;99.90;;;;;;5048771;28;20044;-50
2022/06/30 00:59:32;;;;;;;11.93;9.52;;;19.10;99.90;;;;;;5060995;28;20039;-52
2022/06/30 01:02:00;;;;;;;11.50;9.35;;;19.10;99.90;;;;;;5044079;28;20506;-54
2022/06/30 01:04:29;;;;;;;10.52;9.40;;;19.10;99.90;;;;;;5061866;28;20079;-50
2022/06/30 01:06:57;;;;;;;9.32;7.93;;;19.10;99.90;;;;;;5042294;28;20125;-55
2022/06/30 01:14:54;;;;;;;8.20;7.40;;;18.90;99.90;;;;;;5072300;28;20457;-50
2022/06/30 01:17:20;;;;;;;10.60;9.48;;;18.90;99.90;;;;;;5072003;28;20043;-53
2022/06/30 01:19:54;;;;;;;8.48;7.38;;;18.90;99.90;;;;;;5045012;28;20032;-54
2022/06/30 01:22:19;;;;;;;7.97;7.18;;;18.90;99.90;;;;;;5055481;28;20037;-54
2022/06/30 01:24:45;;;;;;;9.68;8.65;;;18.80;99.90;;;;;;5063241;28;20039;-49
2022/06/30 01:27:11;;;;;;;9.73;8.60;;;18.80;99.90;;;;;;5044846;28;20044;-52
2022/06/30 01:29:37;;;;;;;11.10;9.63;;;18.80;99.90;;;;;;5061546;28;20040;-55
2022/06/30 01:32:04;;;;;;;11.13;10.02;;;18.80;99.90;;;;;;5046854;28;20093;-50
2022/06/30 01:34:29;;;;;;;10.02;9.05;;;18.80;99.90;;;;;;5071067;28;20174;-53
2022/06/30 01:36:55;;;;;;;11.15;9.70;;;18.80;99.90;;;;;;5056486;28;20532;-49
2022/06/30 01:39:21;;;;;;;11.30;10.20;;;18.80;99.90;;;;;;5043798;28;20052;-54
2022/06/30 01:41:46;;;;;;;10.45;9.32;;;18.80;99.90;;;;;;5064829;28;20086;-54
2022/06/30 01:44:12;;;;;;;9.48;8.57;;;18.80;99.90;;;;;;5040414;28;20380;-55
2022/06/30 01:46:45;;;;;;;9.60;8.60;;;18.70;99.90;;;;;;5021477;28;20456;-52
2022/06/30 01:49:11;;;;;;;9.23;7.78;;;18.70;99.90;;;;;;5049978;28;20510;-51
2022/06/30 01:51:37;;;;;;;8.88;8.05;;;18.60;99.90;;;;;;5045497;28;20128;-53
2022/06/30 01:54:03;;;;;;;7.50;6.80;;;18.60;99.90;;;;;;5046502;28;20119;-53
2022/06/30 01:56:29;;;;;;;7.95;6.80;;;18.50;99.90;;;;;;5055171;28;20044;-52
2022/06/30 01:58:55;;;;;;;9.98;7.32;;;18.50;99.90;;;;;;5026775;28;20067;-54
2022/06/30 02:01:21;;;;;;;8.45;6.97;;;18.50;99.90;;;;;;5042675;28;20048;-55
2022/06/30 02:03:46;;;;;;;6.72;6.13;;;18.50;99.90;;;;;;5069830;28;20040;-53
2022/06/30 02:06:12;;;;;;;6.47;5.78;;;18.50;99.90;;;;;;5060978;28;20037;-52
2022/06/30 02:08:38;;;;;;;6.65;5.95;;;18.50;99.90;;;;;;5056596;28;20029;-54
2022/06/30 02:11:03;;;;;;;9.27;6.18;;;18.50;99.90;;;;;;5056604;28;20128;-56
2022/06/30 02:13:29;;;;;;;7.65;5.88;;;18.50;99.90;;;;;;5030800;28;20094;-50
2022/06/30 02:15:55;;;;;;;5.93;5.32;;;18.50;99.90;;;;;;5065104;28;20033;-56
2022/06/30 02:18:21;;;;;;;6.32;5.72;;;18.50;99.90;;;;;;5065813;28;20040;-50
2022/06/30 02:20:47;;;;;;;6.35;5.20;;;18.50;99.90;;;;;;5035991;28;20036;-51
2022/06/30 02:23:13;;;;;;;7.13;6.05;;;18.50;99.90;;;;;;5068882;28;20037;-55
2022/06/30 02:25:38;;;;;;;8.15;5.53;;;18.50;99.90;;;;;;5042335;28;20391;-54
2022/06/30 02:28:05;;;;;;;6.18;5.57;;;18.50;99.90;;;;;;5043461;28;20048;-52
2022/06/30 02:30:32;;;;;;;5.80;4.88;;;18.50;99.90;;;;;;5026065;28;20032;-52
2022/06/30 02:32:58;;;;;;;6.15;5.55;;;18.50;99.90;;;;;;5064211;28;20040;-52
2022/06/30 02:35:24;;;;;;;7.10;5.90;;;18.50;99.90;;;;;;5042759;28;20041;-53
2022/06/30 02:37:50;;;;;;;7.30;5.55;;;18.50;99.90;;;;;;5053298;28;20487;-56
2022/06/30 02:40:15;;;;;;;7.53;5.57;;;18.50;99.90;;;;;;5038781;28;20040;-58
2022/06/30 02:42:42;;;;;;;7.65;6.03;;;18.50;99.90;;;;;;5042221;28;20079;-52
2022/06/30 02:45:08;;;;;;;6.65;5.55;;;18.50;99.90;;;;;;5039792;28;20044;-54
2022/06/30 02:47:36;;;;;;;6.82;5.82;;;18.50;99.90;;;;;;5064556;28;20484;-52
2022/06/30 02:50:04;;;;;;;6.53;4.60;;;18.50;99.90;;;;;;5044176;28;20483;-53
2022/06/30 02:52:31;;;;;;;7.80;5.28;;;18.50;99.90;;;;;;5046846;28;20037;-51
2022/06/30 02:54:58;;;;;;;6.03;5.20;;;18.50;99.90;;;;;;5041658;28;20486;-54
2022/06/30 02:57:23;;;;;;;7.90;5.82;;;18.40;99.90;;;;;;5041486;28;20043;-54
2022/06/30 02:59:50;;;;;;;10.15;5.72;;;18.40;99.90;;;;;;5063512;28;20481;-55
2022/06/30 03:02:16;;;;;;;7.93;5.18;;;18.40;99.90;;;;;;5036708;28;20133;-54
2022/06/30 03:04:42;;;;;;;7.43;6.00;;;18.30;99.90;;;;;;5046467;28;20474;-53
2022/06/30 03:07:08;;;;;;;8.13;5.88;;;18.30;99.90;;;;;;5060714;28;20112;-54
2022/06/30 03:09:34;;;;;;;8.15;5.90;;;18.30;99.90;;;;;;5063163;28;20035;-53
2022/06/30 03:11:59;;;;;;;6.80;5.63;;;18.20;99.90;;;;;;5063927;28;20465;-54
2022/06/30 03:14:25;;;;;;;7.03;5.50;;;18.20;99.90;;;;;;5036128;28;20044;-53
2022/06/30 03:16:51;;;;;;;6.72;5.28;;;18.20;99.90;;;;;;5029276;28;20047;-54
2022/06/30 03:19:17;;;;;;;8.95;5.63;;;18.20;99.90;;;;;;5046704;28;20048;-52
2022/06/30 03:21:42;;;;;;;6.78;5.72;;;18.10;99.90;;;;;;5041353;28;20037;-54
2022/06/30 03:24:09;;;;;;;5.28;4.78;;;18.10;99.90;;;;;;5056195;28;20431;-53
2022/06/30 03:26:36;;;;;;;8.00;5.78;;;18.10;99.90;;;;;;5043159;28;20048;-54
2022/06/30 03:29:02;;;;;;;6.13;5.18;;;18.10;99.90;;;;;;5028657;28;20514;-54
2022/06/30 03:31:28;;;;;;;7.78;5.65;;;18.10;99.90;;;;;;5061844;28;20070;-53
2022/06/30 03:33:54;;;;;;;7.15;5.50;;;18.10;99.90;;;;;;5046820;28;20037;-50
2022/06/30 03:36:20;;;;;;;6.25;5.15;;;18.00;99.90;;;;;;5041877;28;20044;-54
2022/06/30 03:38:45;;;;;;;7.32;5.95;;;18.00;99.90;;;;;;5043274;28;20036;-51
2022/06/30 03:41:11;;;;;;;6.80;5.35;;;18.10;99.90;;;;;;5058528;28;20040;-51
2022/06/30 03:43:37;;;;;;;5.88;5.28;;;18.10;99.90;;;;;;5059162;28;20048;-51
2022/06/30 03:46:03;;;;;;;8.07;6.20;;;18.00;99.90;;;;;;5047095;28;20115;-54
2022/06/30 03:48:28;;;;;;;6.05;5.50;;;18.10;99.90;;;;;;5038505;28;20077;-54
2022/06/30 03:50:54;;;;;;;4.90;4.40;;;18.10;99.90;;;;;;5041893;28;20427;-51
2022/06/30 03:53:20;;;;;;;6.80;5.07;;;18.10;99.90;;;;;;5038126;28;20044;-50
2022/06/30 03:55:45;;;;;;;5.75;5.13;;;18.10;99.90;;;;;;5047581;28;20072;-54
2022/06/30 03:58:11;;;;;;;7.28;4.80;;;18.10;99.90;;;;;;5066387;28;20115;-53
2022/06/30 04:00:38;;;;;;;6.82;6.10;;;18.10;99.90;;;;;;5067886;28;20032;-50
2022/06/30 04:03:04;;;;;;;5.88;4.97;;;18.10;99.90;;;;;;5047073;28;20273;-52
2022/06/30 04:05:30;;;;;;;5.57;3.95;;;18.20;99.90;;;;;;5058671;28;20127;-54
2022/06/30 04:07:56;;;;;;;7.68;5.30;;;18.20;99.90;;;;;;5058597;28;20064;-53
2022/06/30 04:10:22;;;;;;;5.35;4.85;;;18.20;99.90;;;;;;5043399;28;20040;-54
2022/06/30 04:12:48;;;;;;;7.65;5.90;;;18.20;99.90;;;;;;5043042;28;20291;-51
2022/06/30 04:15:13;;;;;;;6.53;5.85;;;18.20;99.90;;;;;;5043493;28;20063;-51
2022/06/30 04:17:39;;;;;;;6.80;6.10;;;18.10;99.90;;;;;;5062806;28;20123;-51
2022/06/30 04:20:15;;;;;;;6.35;5.50;;;18.20;99.90;;;;;;5032826;28;20041;-53
2022/06/30 04:22:52;;;;;;;6.53;5.93;;;18.10;99.90;;;;;;5047727;28;20055;-53
2022/06/30 04:25:18;;;;;;;7.97;6.00;;;18.20;99.90;;;;;;5072162;28;20044;-51
2022/06/30 04:27:49;;;;;;;7.55;5.70;;;18.20;99.90;;;;;;5044583;28;20037;-50
2022/06/30 04:32:37;;;;;;;8.27;5.88;;;18.20;99.90;;;;;;5048122;28;20045;-52
2022/06/30 04:33:03;;;;;;;6.78;5.88;;;18.20;99.90;;;;;;5033289;28;20045;-54
2022/06/30 04:35:29;;;;;;;7.75;5.00;;;18.20;99.90;;;;;;5060185;28;20112;-52
2022/06/30 04:38:01;;;;;;;7.25;5.32;;;18.20;99.90;;;;;;5058124;28;20123;-53
2022/06/30 04:43:13;;;;;;;6.47;5.75;;;18.20;99.90;;;;;;5065674;28;20068;-54
2022/06/30 04:45:39;;;;;;;6.70;5.55;;;18.20;99.90;;;;;;5060511;23;20411;-57
2022/06/30 04:48:05;;;;;;;5.88;5.22;;;18.20;99.90;;;;;;4977101;28;20073;-54
2022/06/30 04:50:30;;;;;;;7.43;5.10;;;18.30;99.90;;;;;;4971738;28;20074;-55
2022/06/30 04:52:56;;;;;;;6.85;6.05;;;18.30;99.90;;;;;;4983676;28;20083;-52
2022/06/30 04:55:22;;;;;;;5.65;4.60;;;18.40;99.90;;;;;;4980600;28;20278;-56
2022/06/30 04:57:51;;;;;;;8.32;6.00;;;18.50;99.90;;;;;;4983941;28;20070;-53
2022/06/30 05:00:17;;;;;;;8.70;6.03;;;18.40;99.90;;;;;;5006453;28;20086;-55
2022/06/30 05:02:43;;;;;;;7.88;5.72;;;18.50;99.90;;;;;;4986178;28;20054;-55
2022/06/30 05:05:09;;;;;;;8.13;6.60;;;18.50;99.90;;;;;;4971530;28;20042;-56
2022/06/30 05:07:35;;;;;;;9.23;6.10;;;18.50;99.90;;;;;;4974678;28;20076;-58
2022/06/30 05:10:02;;;;;;;8.25;5.70;;;18.60;99.90;;;;;;4977963;28;20039;-55
2022/06/30 05:12:28;;;;;;;6.47;5.60;;;18.60;99.90;;;;;;4976354;28;20735;-54
2022/06/30 05:14:53;;;;;;;6.53;5.80;;;18.60;99.90;;;;;;4977077;28;20258;-55
2022/06/30 05:17:19;;;;;;;8.88;5.50;;;18.60;99.90;;;;;;4977134;28;20070;-54
2022/06/30 05:19:45;;;;;;;6.40;5.63;;;18.60;99.90;;;;;;4980156;28;20271;-55
2022/06/30 05:22:11;;;;;;;7.18;5.68;;;18.70;99.90;;;;;;4989722;28;20047;-55
2022/06/30 05:27:21;;;;;;;6.78;5.88;;;18.80;99.90;;;;;;4981343;28;20039;-54
2022/06/30 05:29:47;;;;;;;6.68;5.97;;;18.90;99.90;;;;;;4980590;28;20042;-55
2022/06/30 05:32:13;;;;;;;7.20;5.35;;;19.00;99.90;;;;;;4990974;28;20042;-59
2022/06/30 05:34:39;;;;;;;6.80;5.75;;;19.10;99.90;;;;;;4970235;28;20038;-56
2022/06/30 05:37:05;;;;;;;6.53;5.93;;;19.20;99.90;;;;;;4964496;28;20049;-56
2022/06/30 05:39:32;;;;;;;7.55;5.20;;;19.30;99.90;;;;;;4988709;28;20166;-57
2022/06/30 05:42:00;;;;;;;7.95;5.68;;;19.40;99.90;;;;;;4987383;28;20542;-52
2022/06/30 05:44:27;;;;;;;7.65;5.40;;;19.50;99.90;;;;;;4973013;28;20046;-55
2022/06/30 05:46:53;;;;;;;7.13;5.50;;;19.60;99.90;;;;;;4977920;28;20574;-55
2022/06/30 05:49:19;;;;;;;10.13;5.95;;;19.70;99.90;;;;;;4986597;28;21461;-58
2022/06/30 05:51:45;;;;;;;6.55;5.65;;;19.70;99.90;;;;;;4974118;28;20113;-56
2022/06/30 05:54:10;;;;;;;8.73;5.90;;;19.80;99.90;;;;;;4971732;28;20046;-56
2022/06/30 05:56:36;;;;;;;8.80;5.13;;;19.90;99.90;;;;;;4976078;28;20050;-55
2022/06/30 05:59:02;;;;;;;7.95;5.88;;;20.00;99.90;;;;;;5054028;28;20046;-55
2022/06/30 06:01:28;;;;;;;8.73;6.28;;;20.10;99.90;;;;;;4972061;28;20039;-55
2022/06/30 06:03:54;;;;;;;6.13;5.50;;;20.20;99.90;;;;;;4979013;28;20094;-55
2022/06/30 06:06:19;;;;;;;6.90;5.35;;;20.30;99.90;;;;;;4985539;28;20040;-55
2022/06/30 06:08:45;;;;;;;7.47;5.50;;;20.30;99.90;;;;;;4977086;28;20378;-53
2022/06/30 06:11:11;;;;;;;7.30;5.90;;;20.50;99.90;;;;;;4976109;28;20057;-57
2022/06/30 06:13:36;;;;;;;7.57;5.40;;;20.50;99.90;;;;;;4979467;28;20042;-58
2022/06/30 06:16:02;;;;;;;6.70;6.05;;;20.60;99.90;;;;;;4979628;28;20674;-52
2022/06/30 06:18:28;;;;;;;7.78;6.45;;;20.70;99.90;;;;;;4974342;28;20405;-56
2022/06/30 06:20:53;;;;;;;6.90;6.13;;;20.70;99.90;;;;;;4981013;28;20083;-57
2022/06/30 06:23:19;;;;;;;8.27;6.20;;;20.80;99.90;;;;;;4973497;28;20043;-54
2022/06/30 06:25:45;;;;;;;6.78;5.90;;;20.90;99.90;;;;;;4982876;28;20039;-56
2022/06/30 06:30:54;;;;;;;6.75;5.97;;;21.10;99.90;;;;;;4981822;28;20415;-58
2022/06/30 06:33:20;;;;;;;7.43;6.20;;;21.20;99.90;;;;;;5002153;28;20402;-56
2022/06/30 06:35:46;;;;;;;7.90;7.07;;;21.30;99.90;;;;;;5022048;28;20034;-58
2022/06/30 06:38:12;;;;;;;6.70;6.00;;;21.40;99.90;;;;;;4982535;28;20039;-57
2022/06/30 06:40:37;;;;;;;8.25;7.45;;;21.40;99.90;;;;;;4979174;28;20547;-57
2022/06/30 06:43:03;;;;;;;6.95;6.28;;;21.50;99.90;;;;;;4990064;28;20046;-53
2022/06/30 06:45:29;;;;;;;9.85;6.10;;;21.70;99.90;;;;;;4984218;28;20396;-54
2022/06/30 06:47:54;;;;;;;8.00;7.30;;;21.80;99.90;;;;;;4976691;28;20050;-58
2022/06/30 06:50:20;;;;;;;8.02;7.25;;;21.80;99.90;;;;;;4977198;28;20070;-55
2022/06/30 06:52:46;;;;;;;7.78;7.07;;;21.90;99.90;;;;;;4990577;28;20049;-58
2022/06/30 06:55:11;;;;;;;7.10;6.40;;;22.00;99.90;;;;;;4976963;28;20057;-59
2022/06/30 06:57:39;;;;;;;8.77;7.05;;;22.10;99.90;;;;;;4981851;28;20042;-60
2022/06/30 07:00:09;;;;;;;8.57;7.22;;;22.10;99.90;;;;;;4981275;28;20477;-59
2022/06/30 07:02:36;;;;;;;8.70;7.18;;;22.20;99.90;;;;;;5064739;28;20057;-56
2022/06/30 07:05:02;;;;;;;9.35;7.13;;;22.30;99.90;;;;;;4974133;28;20149;-59
2022/06/30 07:07:27;;;;;;;8.30;7.25;;;22.40;99.90;;;;;;4979599;28;20050;-57
2022/06/30 07:09:53;;;;;;;8.73;7.90;;;22.50;99.90;;;;;;4977042;28;20045;-57
2022/06/30 07:12:19;;;;;;;9.15;8.20;;;22.50;99.90;;;;;;4967650;28;20042;-57
2022/06/30 07:14:44;;;;;;;10.23;7.50;;;22.60;99.90;;;;;;4973729;28;20077;-59
2022/06/30 07:17:10;;;;;;;10.05;7.10;;;22.70;99.90;;;;;;4970228;28;20042;-58
2022/06/30 07:19:36;;;;;;;9.15;7.22;;;22.80;99.90;;;;;;4986410;28;20060;-59
2022/06/30 07:22:02;;;;;;;10.65;7.78;;;22.90;99.90;;;;;;4967961;28;20056;-57
2022/06/30 07:24:30;;;;;;;8.52;7.32;;;23.10;99.90;;;;;;4979063;28;20073;-59
2022/06/30 07:26:56;;;;;;;7.72;7.03;;;23.10;99.90;;;;;;5044541;28;20082;-57
2022/06/30 07:29:22;;;;;;;8.50;7.38;;;23.20;99.90;;;;;;4974644;28;20050;-57
2022/06/30 07:31:47;;;;;;;8.10;7.32;;;23.40;99.90;;;;;;4964482;28;20045;-57
2022/06/30 07:34:13;;;;;;;7.75;7.05;;;23.40;99.90;;;;;;4978215;28;20043;-59
2022/06/30 07:36:41;;;;;;;13.30;8.00;;;23.30;99.90;;;;;;4979408;28;20035;-56
2022/06/30 07:39:07;;;;;;;8.82;7.93;;;23.40;99.90;;;;;;4960713;28;20060;-59
2022/06/30 07:41:32;;;;;;;8.05;7.25;;;23.50;99.90;;;;;;4972711;28;20050;-59
2022/06/30 07:43:58;;;;;;;9.45;8.07;;;23.60;99.90;;;;;;4980139;28;20042;-59
2022/06/30 07:46:24;;;;;;;9.82;8.30;;;23.70;99.90;;;;;;4977413;28;20073;-61
2022/06/30 07:48:50;;;;;;;9.27;8.30;;;23.80;99.90;;;;;;4965497;28;20404;-58
2022/06/30 07:51:18;;;;;;;8.93;8.10;;;23.80;99.90;;;;;;4973800;28;20073;-59
2022/06/30 07:53:44;;;;;;;8.93;8.07;;;23.80;99.90;;;;;;4978313;28;20112;-59
2022/06/30 07:56:10;;;;;;;10.07;7.70;;;23.90;99.90;;;;;;4984237;28;20460;-60
2022/06/30 07:58:36;;;;;;;9.05;8.20;;;24.00;99.90;;;;;;4975020;28;20046;-60
2022/06/30 08:01:02;;;;;;;8.90;8.00;;;24.20;99.90;;;;;;4968209;28;20038;-59
2022/06/30 08:03:28;;;;;;;10.13;7.80;;;24.20;99.90;;;;;;4984060;28;20713;-60
2022/06/30 08:05:54;;;;;;;9.18;8.15;;;24.30;99.90;;;;;;4993288;28;20142;-60
2022/06/30 08:08:19;;;;;;;7.95;6.97;;;24.50;99.90;;;;;;4980253;28;20137;-59
2022/06/30 08:10:45;;;;;;;11.20;10.20;;;24.60;99.90;;;;;;4970370;28;20034;-60
2022/06/30 08:13:11;;;;;;;12.13;8.98;;;24.70;99.90;;;;;;4975258;28;20042;-59
2022/06/30 08:15:38;;;;;;;10.13;8.55;;;24.70;99.90;;;;;;4994460;28;20045;-59
2022/06/30 08:18:05;;;;;;;10.82;8.80;;;24.80;99.90;;;;;;4978554;28;20106;-60
2022/06/30 08:20:32;;;;;;;9.70;8.77;;;24.90;99.90;;;;;;4972625;28;20046;-61
2022/06/30 08:22:58;;;;;;;10.90;8.85;;;25.10;99.90;;;;;;4967359;28;20536;-60
2022/06/30 08:25:24;;;;;;;9.93;8.85;;;25.20;99.90;;;;;;4978437;28;20053;-60
2022/06/30 08:27:50;;;;;;;10.15;9.10;;;25.30;99.90;;;;;;4984442;28;20287;-60
2022/06/30 08:30:16;;;;;;;10.32;9.32;;;25.40;99.90;;;;;;4980364;28;20189;-60
2022/06/30 08:32:43;;;;;;;10.80;9.55;;;25.50;99.90;;;;;;4984943;28;20176;-59
2022/06/30 08:35:08;;;;;;;11.00;9.95;;;25.60;99.90;;;;;;4976662;28;20131;-55
2022/06/30 08:37:35;;;;;;;11.65;9.70;;;25.70;99.90;;;;;;4968547;28;20071;-56
2022/06/30 08:42:46;;;;;;;12.05;10.05;;;25.80;99.90;;;;;;4973363;28;20079;-57
2022/06/30 08:45:13;;;;;;;11.48;9.88;;;25.80;99.90;;;;;;4987959;28;20738;-57
2022/06/30 08:47:40;;;;;;;11.27;10.18;;;25.80;99.90;;;;;;4969115;28;20038;-57
2022/06/30 08:50:11;;;;;;;11.13;9.75;;;25.80;99.90;;;;;;4968612;28;20050;-55
2022/06/30 08:52:57;;;;;;;14.55;10.38;;;25.90;99.90;;;;;;4983611;28;20144;-54
2022/06/30 08:55:27;;;;;;;12.75;10.20;;;26.10;99.90;;;;;;5017771;28;20042;-49
2022/06/30 08:58:20;;;;;;;12.38;10.88;;;26.20;99.90;;;;;;4980664;28;20042;-53
2022/06/30 09:00:46;;;;;;;12.35;11.13;;;26.30;99.90;;;;;;4965988;28;20051;-59
2022/06/30 09:03:12;;;;;;;12.90;11.57;;;26.40;99.90;;;;;;4971173;28;20039;-57
2022/06/30 09:05:39;;;;;;;14.18;10.82;;;26.30;99.70;;;;;;4968780;28;20042;-55
2022/06/30 09:08:07;;;;;;;11.30;9.98;;;26.30;99.90;;;;;;4979442;28;20524;-56
2022/06/30 09:10:33;;;;;;;13.15;9.65;;;26.40;99.60;;;;;;4971942;28;20046;-57
2022/06/30 09:13:02;;;;;;;15.05;12.27;;;26.40;99.50;;;;;;4982438;28;20042;-53
2022/06/30 09:15:37;;;;;;;11.65;10.45;;;26.50;99.70;;;;;;4973002;28;20386;-53
2022/06/30 09:18:04;;;;;;;11.93;10.73;;;26.50;99.70;;;;;;4976144;28;20038;-56
2022/06/30 09:20:40;;;;;;;10.85;9.82;;;26.60;99.40;;;;;;5039844;28;20064;-57
2022/06/30 09:23:35;;;;;;;11.68;10.50;;;26.60;99.20;;;;;;4970293;28;20045;-57
2022/06/30 09:26:02;;;;;;;12.07;10.88;;;26.70;99.00;;;;;;4974705;28;20125;-53
2022/06/30 09:28:51;;;;;;;14.52;11.40;;;26.70;99.10;;;;;;4995939;28;20054;-53
2022/06/30 09:31:45;;;;;;;13.10;10.77;;;26.90;99.10;;;;;;4990451;28;20042;-51
2022/06/30 09:34:19;;;;;;;12.23;10.63;;;27.00;98.80;;;;;;4985209;28;20034;-50
2022/06/30 09:36:46;;;;;;;12.82;11.52;;;27.10;98.70;;;;;;4986730;28;20038;-52
2022/06/30 09:39:13;;;;;;;12.77;11.50;;;27.10;98.40;;;;;;4993452;28;20042;-51
2022/06/30 09:41:41;;;;;;;12.35;11.25;;;27.20;98.50;;;;;;4951740;28;20042;-53
2022/06/30 09:44:21;;;;;;;18.15;13.35;;;27.20;98.40;;;;;;4972960;28;20058;-53
2022/06/30 09:47:20;;;;;;;13.18;11.38;;;27.30;98.20;;;;;;4972748;28;20050;-53
2022/06/30 09:49:49;;;;;;;14.38;11.43;;;27.40;98.30;;;;;;4985894;28;20046;-50
2022/06/30 09:52:25;;;;;;;16.35;11.48;;;27.50;98.20;;;;;;4979083;28;20073;-50
2022/06/30 09:55:04;;;;;;;11.95;10.85;;;27.60;98.00;;;;;;4978310;28;20038;-53
2022/06/30 09:57:32;;;;;;;13.48;12.18;;;27.70;98.00;;;;;;4973614;28;20490;-50
2022/06/30 10:00:04;;;;;;;15.05;11.48;;;27.70;97.50;;;;;;4974318;28;20181;-53
2022/06/30 10:02:39;;;;;;;13.70;12.25;;;27.70;96.90;;;;;;4978235;28;20034;-51
2022/06/30 10:05:06;;;;;;;11.95;10.73;;;27.30;96.50;;;;;;4978721;28;20058;-50
2022/06/30 10:07:36;;;;;;;13.23;11.30;;;27.30;96.70;;;;;;4969822;28;20050;-54
2022/06/30 10:10:04;;;;;;;14.27;11.88;;;27.40;96.80;;;;;;4979513;28;20177;-53
2022/06/30 10:12:30;;;;;;;11.73;10.60;;;27.50;96.10;;;;;;4974459;28;20038;-50
2022/06/30 10:14:56;;;;;;;14.32;12.85;;;27.70;96.70;;;;;;4970801;28;20041;-51
2022/06/30 10:17:27;;;;;;;12.77;10.30;;;27.80;96.20;;;;;;4971522;28;20066;-51
2022/06/30 10:19:54;;;;;;;14.68;13.18;;;27.90;96.30;;;;;;4967130;28;20042;-52
2022/06/30 10:22:22;;;;;;;14.50;12.48;;;28.20;96.20;;;;;;4971280;28;20127;-54
2022/06/30 10:24:50;;;;;;;13.38;11.98;;;28.00;95.40;;;;;;5052349;28;20035;-54
2022/06/30 10:27:17;;;;;;;18.77;16.90;;;28.10;95.90;;;;;;4964234;28;20401;-50
2022/06/30 10:29:56;;;;;;;16.80;15.20;;;28.30;96.30;;;;;;4938599;28;20040;-50
2022/06/30 10:32:39;;;;;;;16.17;14.57;;;28.40;96.30;;;;;;4939192;28;20044;-54
2022/06/30 10:35:22;;;;;;;16.45;14.82;;;28.20;95.80;;;;;;4945289;28;20042;-51
2022/06/30 10:38:11;;;;;;;17.80;16.02;;;27.80;96.10;;;;;;4936360;28;20039;-54
2022/06/30 10:40:47;;;;;;;12.63;11.15;;;28.00;95.60;;;;;;4939057;28;20059;-52
2022/06/30 10:43:14;;;;;;;11.98;10.77;;;27.60;93.90;;;;;;4942433;28;20059;-49
2022/06/30 10:45:59;;;;;;;14.13;11.50;;;27.40;93.70;;;;;;4976456;23;20035;-50
2022/06/30 10:48:28;;;;;;;15.10;13.60;;;27.00;94.10;;;;;;5017285;28;20485;-52
2022/06/30 10:50:56;;;;;;;15.23;13.63;;;27.00;95.30;;;;;;5019768;28;20029;-48
2022/06/30 10:53:54;;;;;;;15.45;12.45;;;27.00;95.60;;;;;;5021189;28;20038;-47
2022/06/30 10:56:22;;;;;;;13.75;11.63;;;27.40;96.10;;;;;;5024557;28;20041;-50
2022/06/30 10:59:05;;;;;;;11.68;10.48;;;27.80;95.90;;;;;;5023026;28;20037;-49
2022/06/30 11:01:31;;;;;;;12.10;10.88;;;27.90;95.40;;;;;;5019688;28;20045;-51
2022/06/30 11:03:57;;;;;;;9.68;8.45;;;27.60;93.00;;;;;;5023097;28;20041;-51
2022/06/30 11:06:26;;;;;;;7.38;6.53;;;27.50;94.60;;;;;;5028127;28;20496;-51
2022/06/30 11:08:57;;;;;;;9.50;8.02;;;27.60;93.60;;;;;;5024459;28;20109;-47
2022/06/30 11:11:24;;;;;;;13.68;8.15;;;27.50;93.00;;;;;;5024574;28;20189;-49
2022/06/30 11:13:51;;;;;;;13.10;9.07;;;27.50;93.30;;;;;;5023672;28;20045;-47
2022/06/30 11:16:19;;;;;;;12.98;9.52;;;27.10;92.40;;;;;;5007496;28;20484;-50
2022/06/30 11:18:46;;;;;;;9.38;8.38;;;27.10;93.60;;;;;;5042532;28;20500;-55
2022/06/30 11:21:12;;;;;;;11.65;9.07;;;27.30;93.80;;;;;;5023185;28;20056;-50
2022/06/30 11:23:40;;;;;;;9.30;7.95;;;27.60;92.90;;;;;;5024250;28;20038;-49
2022/06/30 11:28:53;;;;;;;12.30;8.35;;;28.10;93.80;;;;;;5037145;28;20133;-56
2022/06/30 11:31:29;;;;;;;10.05;8.27;;;27.90;94.00;;;;;;5016428;28;20041;-50
2022/06/30 11:34:15;;;;;;;9.40;7.72;;;27.80;93.00;;;;;;5022228;28;20048;-50
2022/06/30 11:36:43;;;;;;;11.32;8.73;;;27.80;94.10;;;;;;5030615;28;20167;-57
2022/06/30 11:39:15;;;;;;;13.07;7.80;;;28.00;93.90;;;;;;5024531;28;20049;-53
2022/06/30 11:42:00;;;;;;;10.63;7.93;;;28.30;93.40;;;;;;5026198;28;20250;-49
2022/06/30 11:44:38;;;;;;;10.43;7.47;;;28.40;92.90;;;;;;5026792;28;20175;-52
2022/06/30 11:47:10;;;;;;;13.70;10.02;;;28.20;92.70;;;;;;5020929;28;20049;-51
2022/06/30 11:49:51;;;;;;;11.30;10.20;;;28.00;93.10;;;;;;5030508;28;20420;-50
2022/06/30 11:52:20;;;;;;;13.02;9.40;;;27.60;93.50;;;;;;5028916;28;20318;-50
2022/06/30 11:55:14;;;;;;;12.77;10.55;;;27.80;94.40;;;;;;5019143;28;20045;-55
2022/06/30 11:57:42;;;;;;;11.32;9.18;;;27.90;93.80;;;;;;5017634;28;20508;-51
2022/06/30 12:00:17;;;;;;;13.77;11.05;;;28.00;94.40;;;;;;5024124;28;20030;-51
2022/06/30 12:02:45;;;;;;;11.07;9.07;;;28.10;94.10;;;;;;5027305;28;20412;-57
2022/06/30 12:05:13;;;;;;;10.20;8.05;;;28.10;94.40;;;;;;5022025;28;20117;-50
2022/06/30 12:07:40;;;;;;;10.88;8.20;;;28.40;94.70;;;;;;5024076;28;20503;-51
2022/06/30 12:10:08;;;;;;;12.65;7.78;;;28.40;93.30;;;;;;5021924;28;20449;-52
2022/06/30 12:12:38;;;;;;;9.85;6.30;;;28.20;93.20;;;;;;5029239;28;20041;-49
2022/06/30 12:15:07;;;;;;;8.95;6.43;;;28.00;93.70;;;;;;5028491;28;20050;-59
2022/06/30 12:17:35;;;;;;;11.88;6.65;;;28.00;93.60;;;;;;5027239;28;20046;-52
2022/06/30 12:20:06;;;;;;;10.32;6.85;;;27.40;92.70;;;;;;5022423;28;20064;-52
2022/06/30 12:22:33;;;;;;;7.45;5.05;;;27.20;92.80;;;;;;5026227;28;20037;-51
2022/06/30 12:25:00;;;;;;;9.52;5.63;;;27.30;92.90;;;;;;5024670;28;20435;-51
2022/06/30 12:27:35;;;;;;;9.20;6.68;;;26.80;91.80;;;;;;5025397;28;20502;-57
2022/06/30 12:30:09;;;;;;;8.50;6.30;;;26.50;91.50;;;;;;5023060;28;20033;-49
2022/06/30 12:32:35;;;;;;;10.10;6.18;;;26.70;92.70;;;;;;5016817;28;20385;-49
2022/06/30 12:35:09;;;;;;;10.95;9.05;;;26.60;92.70;;;;;;5025381;28;20064;-48
2022/06/30 12:37:40;;;;;;;13.20;8.27;;;26.50;93.30;;;;;;5073819;28;20041;-56
2022/06/30 12:40:11;;;;;;;10.02;6.95;;;26.60;94.20;;;;;;5044415;28;20115;-49
2022/06/30 12:42:41;;;;;;;9.77;7.05;;;27.00;93.90;;;;;;5042286;28;20036;-54
2022/06/30 12:45:27;;;;;;;9.88;7.55;;;26.70;93.10;;;;;;5045905;28;20120;-50
2022/06/30 12:47:52;;;;;;;9.38;6.85;;;26.70;93.70;;;;;;5046327;28;20471;-52
2022/06/30 12:50:21;;;;;;;8.38;7.55;;;26.50;93.80;;;;;;5074808;28;20206;-51
2022/06/30 12:52:47;;;;;;;10.00;7.90;;;26.00;93.70;;;;;;5043590;28;20491;-53
2022/06/30 12:55:12;;;;;;;11.55;7.80;;;25.80;94.10;;;;;;5041738;28;20029;-50
2022/06/30 12:57:38;;;;;;;11.35;6.82;;;26.00;94.20;;;;;;5041484;28;20522;-52
2022/06/30 13:00:05;;;;;;;10.80;8.10;;;26.10;94.10;;;;;;5024398;28;20192;-53
2022/06/30 13:02:42;;;;;;;8.77;6.20;;;25.80;93.70;;;;;;5044074;28;20186;-55
2022/06/30 13:05:13;;;;;;;13.00;6.72;;;25.80;93.70;;;;;;5044745;28;20032;-55